Time;durP1;ratioP1;P1;durP2;ratioP2;P2;SDS_P1;SDS_P2;PMS_P1;PMS_P2;Temp;Humidity;BMP_temperature;BMP_pressure;BME280_temperature;BME280_humidity;BME280_pressure;Samples;Min_cycle;Max_cycle;Signal;HPM_P1;HPM_P2
2023/03/01 00:01:27;;;;;;;8.57;4.03;;;;;;;-1.40;100.00;103032.97;5120248;27;20042;-58
2023/03/01 00:03:56;;;;;;;7.80;3.95;;;;;;;-1.40;100.00;103030.38;5130979;27;20046;-58
2023/03/01 00:06:25;;;;;;;6.57;3.30;;;;;;;-1.44;100.00;103028.59;5129384;27;20922;-58
2023/03/01 00:08:53;;;;;;;7.90;4.00;;;;;;;-1.47;100.00;103025.91;5130897;27;20457;-58
2023/03/01 00:11:24;;;;;;;8.00;4.40;;;;;;;-1.49;100.00;103023.31;5131301;27;20138;-58
2023/03/01 00:13:54;;;;;;;7.65;3.83;;;;;;;-1.44;100.00;103021.69;5134098;27;20118;-58
2023/03/01 00:16:25;;;;;;;8.95;4.22;;;;;;;-1.47;100.00;103024.22;5134062;27;20046;-58
2023/03/01 00:18:55;;;;;;;8.32;4.43;;;;;;;-1.52;100.00;103020.69;5133839;27;20512;-58
2023/03/01 00:21:24;;;;;;;8.45;4.20;;;;;;;-1.53;100.00;103016.34;5129402;27;20539;-59
2023/03/01 00:23:52;;;;;;;9.10;4.43;;;;;;;-1.52;100.00;103010.34;5129345;27;20104;-59
2023/03/01 00:26:23;;;;;;;8.85;4.25;;;;;;;-1.51;100.00;103001.78;5130898;27;20088;-59
2023/03/01 00:28:51;;;;;;;8.60;4.13;;;;;;;-1.50;100.00;103003.53;5124661;27;20072;-58
2023/03/01 00:31:22;;;;;;;9.43;4.05;;;;;;;-1.44;100.00;103005.34;5110654;27;20092;-58
2023/03/01 00:33:53;;;;;;;7.70;3.80;;;;;;;-1.42;100.00;103012.28;5116145;27;20031;-58
2023/03/01 00:36:21;;;;;;;7.82;3.95;;;;;;;-1.38;100.00;103005.44;5117747;27;20050;-58
2023/03/01 00:38:49;;;;;;;8.23;4.07;;;;;;;-1.51;100.00;103011.22;5124082;27;20456;-58
2023/03/01 00:41:19;;;;;;;7.30;3.70;;;;;;;-1.50;100.00;103000.94;5125834;27;20536;-59
2023/03/01 00:43:47;;;;;;;7.43;3.83;;;;;;;-1.56;100.00;103003.38;5124076;27;20051;-59
2023/03/01 00:46:17;;;;;;;8.45;4.10;;;;;;;-1.63;100.00;103004.97;5115542;28;20045;-58
2023/03/01 00:48:46;;;;;;;7.43;3.92;;;;;;;-1.64;100.00;103007.53;5115867;28;20497;-58
2023/03/01 00:51:17;;;;;;;7.35;3.72;;;;;;;-1.71;100.00;103003.94;5116126;28;20048;-58
2023/03/01 00:53:47;;;;;;;7.87;3.90;;;;;;;-1.76;100.00;103005.56;5119540;28;20039;-58
2023/03/01 00:56:15;;;;;;;10.70;4.05;;;;;;;-1.80;100.00;102998.59;5118221;28;20846;-58
2023/03/01 00:58:43;;;;;;;7.63;4.30;;;;;;;-1.71;100.00;102989.31;5113567;28;20837;-58
2023/03/01 01:01:17;;;;;;;7.68;4.22;;;;;;;-1.75;100.00;102984.94;5121627;28;20066;-60
2023/03/01 01:03:48;;;;;;;8.52;4.47;;;;;;;-1.75;100.00;102992.69;5117767;28;20043;-59
2023/03/01 01:06:20;;;;;;;8.60;4.47;;;;;;;-1.80;100.00;102975.38;5119224;28;20039;-58
2023/03/01 01:08:49;;;;;;;8.40;4.20;;;;;;;-1.78;100.00;102984.03;5121008;28;20192;-58
2023/03/01 01:11:17;;;;;;;11.18;4.88;;;;;;;-1.89;100.00;102976.06;5121238;28;20158;-58
2023/03/01 01:13:47;;;;;;;8.02;4.20;;;;;;;-1.78;100.00;102977.16;5123718;28;20035;-59
2023/03/01 01:16:16;;;;;;;7.47;3.83;;;;;;;-1.94;100.00;102982.81;5132242;28;20041;-58
2023/03/01 01:18:45;;;;;;;8.20;3.83;;;;;;;-1.89;100.00;102982.06;5133294;28;20424;-58
2023/03/01 01:21:15;;;;;;;7.43;3.67;;;;;;;-1.96;100.00;102972.47;5125882;27;20397;-58
2023/03/01 01:23:46;;;;;;;8.50;3.95;;;;;;;-1.96;100.00;102971.63;5129066;28;20502;-47
2023/03/01 01:26:16;;;;;;;8.73;4.72;;;;;;;-1.97;100.00;102968.16;5125756;27;20567;-48
2023/03/01 01:28:44;;;;;;;7.90;4.00;;;;;;;-1.92;100.00;102974.28;5118896;28;20502;-50
2023/03/01 01:31:12;;;;;;;8.20;4.07;;;;;;;-2.04;100.00;102961.13;5121131;27;20474;-48
2023/03/01 01:33:40;;;;;;;8.23;4.63;;;;;;;-2.14;100.00;102954.03;5117938;28;20039;-49
2023/03/01 01:36:10;;;;;;;8.45;4.07;;;;;;;-2.13;100.00;102955.78;5113536;27;20055;-50
2023/03/01 01:38:39;;;;;;;9.00;4.20;;;;;;;-2.19;100.00;102955.66;5122852;28;20046;-50
2023/03/01 01:41:08;;;;;;;8.43;4.18;;;;;;;-2.29;100.00;102958.03;5121232;27;20039;-47
2023/03/01 01:43:38;;;;;;;7.53;4.03;;;;;;;-2.30;100.00;102956.28;5122494;28;20040;-48
2023/03/01 01:46:16;;;;;;;9.75;4.53;;;;;;;-2.29;100.00;102955.44;5119155;28;20390;-50
2023/03/01 01:48:49;;;;;;;8.27;4.07;;;;;;;-2.36;100.00;102955.25;5121404;28;20375;-47
2023/03/01 01:51:25;;;;;;;9.05;4.82;;;;;;;-2.36;100.00;102956.13;5121916;27;20375;-50
2023/03/01 01:54:00;;;;;;;8.55;4.93;;;;;;;-2.39;100.00;102956.06;5120745;27;20045;-50
2023/03/01 01:56:30;;;;;;;8.02;4.40;;;;;;;-2.35;100.00;102955.28;5125059;27;20035;-50
2023/03/01 01:58:59;;;;;;;8.00;4.43;;;;;;;-2.36;100.00;102956.13;5126281;27;20566;-47
2023/03/01 02:01:27;;;;;;;8.27;4.35;;;;;;;-2.33;100.00;102965.63;5123869;27;20122;-48
2023/03/01 02:03:56;;;;;;;12.93;5.43;;;;;;;-2.47;100.00;102966.19;5134547;27;20058;-47
2023/03/01 02:06:29;;;;;;;8.18;5.03;;;;;;;-2.42;100.00;102966.31;5136871;27;20498;-48
2023/03/01 02:09:02;;;;;;;8.60;4.57;;;;;;;-2.44;100.00;102963.69;5136329;27;20067;-48
2023/03/01 02:11:33;;;;;;;11.15;4.82;;;;;;;-2.51;100.00;102955.78;5131861;27;20051;-47
2023/03/01 02:14:01;;;;;;;7.70;4.50;;;;;;;-2.56;100.00;102953.13;5133143;27;20054;-48
2023/03/01 02:16:30;;;;;;;12.20;5.25;;;;;;;-2.58;100.00;102953.09;5132618;27;20089;-49
2023/03/01 02:19:00;;;;;;;9.57;4.78;;;;;;;-2.58;100.00;102955.66;5133156;27;20039;-47
2023/03/01 02:21:39;;;;;;;10.00;5.10;;;;;;;-2.55;100.00;102954.84;5130723;27;20129;-50
2023/03/01 02:24:19;;;;;;;10.07;5.97;;;;;;;-2.58;100.00;102953.09;5133050;27;20031;-48
2023/03/01 02:26:52;;;;;;;9.50;5.18;;;;;;;-2.61;100.00;102942.69;5132146;27;20043;-48
2023/03/01 02:29:22;;;;;;;10.70;5.53;;;;;;;-2.68;100.00;102943.38;5113673;27;20051;-50
2023/03/01 02:31:52;;;;;;;12.35;6.43;;;;;;;-2.66;100.00;102939.13;5110165;28;20056;-47
2023/03/01 02:34:24;;;;;;;12.05;5.65;;;;;;;-2.76;100.00;102940.63;5122670;27;20171;-51
2023/03/01 02:36:56;;;;;;;10.82;5.97;;;;;;;-2.75;100.00;102944.94;5122236;27;20043;-48
2023/03/01 02:39:28;;;;;;;10.82;6.13;;;;;;;-2.79;100.00;102939.69;5122837;27;20098;-50
2023/03/01 02:41:58;;;;;;;11.43;5.25;;;;;;;-2.89;100.00;102936.88;5120885;27;20062;-50
2023/03/01 02:44:28;;;;;;;11.43;6.05;;;;;;;-2.94;100.00;102938.47;5119997;27;20044;-48
2023/03/01 02:46:58;;;;;;;11.98;5.95;;;;;;;-2.85;100.00;102942.09;5126552;27;20047;-47
2023/03/01 02:49:28;;;;;;;11.55;6.18;;;;;;;-2.89;100.00;102934.31;5127548;27;20046;-48
2023/03/01 02:52:17;;;;;;;11.30;5.80;;;;;;;-2.93;100.00;102932.50;5129502;27;20088;-48
2023/03/01 02:54:51;;;;;;;10.55;6.20;;;;;;;-3.00;100.00;102930.63;5130358;27;20035;-48
2023/03/01 02:57:21;;;;;;;11.45;6.38;;;;;;;-3.05;100.00;102934.78;5117762;27;20040;-49
2023/03/01 02:59:52;;;;;;;12.20;5.63;;;;;;;-3.09;100.00;102931.25;5120446;27;20043;-51
2023/03/01 03:02:35;;;;;;;12.07;6.38;;;;;;;-3.10;100.00;102926.06;5123655;27;20086;-47
2023/03/01 03:05:10;;;;;;;11.32;5.80;;;;;;;-3.12;100.00;102927.69;5113463;27;20043;-48
2023/03/01 03:07:40;;;;;;;13.52;6.47;;;;;;;-3.13;100.00;102923.41;5122870;27;20058;-51
2023/03/01 03:10:11;;;;;;;13.63;6.43;;;;;;;-3.14;100.00;102916.50;5138555;27;20062;-48
2023/03/01 03:12:40;;;;;;;11.10;5.68;;;;;;;-3.12;100.00;102923.44;5127912;27;20091;-51
2023/03/01 03:15:12;;;;;;;12.13;6.45;;;;;;;-3.12;100.00;102922.56;5119133;27;20028;-49
2023/03/01 03:17:42;;;;;;;10.23;5.88;;;;;;;-3.09;100.00;102917.50;5121881;27;20054;-49
2023/03/01 03:20:18;;;;;;;;;;;;;;;-3.12;100.00;102919.97;5119344;27;20046;-50
2023/03/01 03:22:47;;;;;;;10.25;5.88;;;;;;;-3.13;100.00;102925.97;5118596;27;20987;-49
2023/03/01 03:25:16;;;;;;;11.73;6.03;;;;;;;-3.14;100.00;102919.09;5124226;27;20047;-49
2023/03/01 03:27:46;;;;;;;10.45;5.40;;;;;;;-3.12;100.00;102909.69;5121824;27;20039;-50
2023/03/01 03:30:18;;;;;;;11.25;6.07;;;;;;;-3.09;100.00;102918.38;5119651;27;20478;-49
2023/03/01 03:32:52;;;;;;;11.73;6.18;;;;;;;-3.13;100.00;102919.13;5124213;27;20104;-49
2023/03/01 03:35:21;;;;;;;10.43;5.45;;;;;;;-3.14;100.00;102916.50;5121266;27;20073;-47
2023/03/01 03:38:05;;;;;;;14.13;6.28;;;;;;;-3.15;100.00;102914.75;5118942;27;20047;-49
2023/03/01 03:40:36;;;;;;;10.25;5.72;;;;;;;-3.14;100.00;102917.38;5125911;27;20076;-49
2023/03/01 03:43:05;;;;;;;10.45;5.55;;;;;;;-3.15;100.00;102919.91;5124410;27;20541;-50
2023/03/01 03:45:35;;;;;;;10.88;5.95;;;;;;;-3.20;100.00;102912.09;5128826;27;20100;-50
2023/03/01 03:48:06;;;;;;;11.52;5.57;;;;;;;-3.16;100.00;102906.19;5121283;27;20053;-50
2023/03/01 03:50:34;;;;;;;10.15;5.70;;;;;;;-3.15;100.00;102907.03;5121917;27;20039;-52
2023/03/01 03:53:04;;;;;;;11.05;5.38;;;;;;;-3.14;100.00;102914.81;5126623;27;20043;-51
2023/03/01 03:55:33;;;;;;;11.35;5.80;;;;;;;-3.15;100.00;102912.19;5125785;27;20730;-47
2023/03/01 03:58:06;;;;;;;11.07;5.45;;;;;;;-3.19;100.00;102905.22;5129665;27;20089;-48
2023/03/01 04:00:38;;;;;;;12.27;5.60;;;;;;;-3.20;100.00;102906.03;5127080;27;20131;-49
2023/03/01 04:03:06;;;;;;;10.05;5.72;;;;;;;-3.23;100.00;102900.00;5131038;27;20147;-49
2023/03/01 04:05:39;;;;;;;9.18;5.45;;;;;;;-3.25;100.00;102904.22;5129105;27;20050;-49
2023/03/01 04:08:08;;;;;;;9.55;5.80;;;;;;;-3.24;100.00;102905.97;5130437;27;20078;-47
2023/03/01 04:10:38;;;;;;;9.77;5.35;;;;;;;-3.17;100.00;102908.72;5117747;27;20066;-48
2023/03/01 04:13:07;;;;;;;9.70;5.43;;;;;;;-3.22;100.00;102898.28;5110565;28;20452;-50
2023/03/01 04:15:37;;;;;;;10.50;5.43;;;;;;;-3.25;100.00;102898.22;5109023;28;20075;-48
2023/03/01 04:18:06;;;;;;;10.93;4.95;;;;;;;-3.26;100.00;102897.38;5113221;28;20039;-48
2023/03/01 04:20:37;;;;;;;14.05;5.55;;;;;;;-3.24;100.00;102900.84;5125206;27;20047;-47
2023/03/01 04:23:12;;;;;;;11.93;5.55;;;;;;;-3.26;100.00;102897.38;5130557;27;20047;-48
2023/03/01 04:25:43;;;;;;;8.98;4.88;;;;;;;-3.29;100.00;102894.69;5129047;27;20047;-48
2023/03/01 04:28:12;;;;;;;9.50;5.20;;;;;;;-3.29;100.00;102886.97;5113088;27;20379;-50
2023/03/01 04:30:41;;;;;;;9.77;5.10;;;;;;;-3.31;100.00;102883.50;5112037;28;20108;-48
2023/03/01 04:33:11;;;;;;;14.07;5.20;;;;;;;-3.28;100.00;102883.56;5119820;27;20039;-47
2023/03/01 04:35:40;;;;;;;10.80;4.88;;;;;;;-3.31;100.00;102882.63;5120155;27;20070;-47
2023/03/01 04:38:09;;;;;;;9.50;4.82;;;;;;;-3.29;100.00;102891.25;5155339;27;20042;-47
2023/03/01 04:40:37;;;;;;;9.27;5.10;;;;;;;-3.31;100.00;102892.91;5117048;27;20039;-45
2023/03/01 04:43:05;;;;;;;9.98;5.05;;;;;;;-3.29;100.00;102891.25;5123471;27;20046;-48
2023/03/01 04:45:35;;;;;;;9.20;5.47;;;;;;;-3.34;100.00;102886.00;5122863;28;20437;-47
2023/03/01 04:48:05;;;;;;;8.70;4.78;;;;;;;-3.36;100.00;102877.38;5124387;28;20055;-48
2023/03/01 04:50:33;;;;;;;9.88;5.15;;;;;;;-3.35;100.00;102878.22;5117086;28;20055;-45
2023/03/01 04:53:02;;;;;;;10.80;5.25;;;;;;;-3.36;100.00;102873.94;5122491;27;20039;-49
2023/03/01 04:55:31;;;;;;;11.40;5.63;;;;;;;-3.36;100.00;102874.78;5122417;27;20050;-49
2023/03/01 04:57:59;;;;;;;10.18;4.65;;;;;;;-3.36;100.00;102872.22;5120079;28;20510;-47
2023/03/01 05:00:27;;;;;;;12.55;5.57;;;;;;;-3.35;100.00;102870.50;5116489;28;20055;-48
2023/03/01 05:02:57;;;;;;;8.07;4.80;;;;;;;-3.37;100.00;102867.03;5121520;28;20047;-50
2023/03/01 05:05:31;;;;;;;11.68;5.22;;;;;;;-3.39;100.00;102864.44;5119034;28;20051;-47
2023/03/01 05:08:01;;;;;;;12.35;5.75;;;;;;;-3.40;100.00;102862.69;5120901;28;20621;-50
2023/03/01 05:10:31;;;;;;;10.85;4.95;;;;;;;-3.41;100.00;102859.25;5123258;28;20425;-49
2023/03/01 05:13:00;;;;;;;9.88;5.00;;;;;;;-3.30;100.00;102850.91;5119039;28;20159;-47
2023/03/01 05:15:30;;;;;;;9.63;4.68;;;;;;;-3.36;100.00;102854.19;5123348;28;20039;-47
2023/03/01 05:18:00;;;;;;;9.45;4.85;;;;;;;-3.36;100.00;102843.91;5123372;28;20066;-47
2023/03/01 05:20:31;;;;;;;9.40;4.75;;;;;;;-3.39;100.00;102838.69;5118128;27;20108;-49
2023/03/01 05:23:04;;;;;;;9.63;4.95;;;;;;;-3.41;100.00;102841.22;5120022;28;20062;-49
2023/03/01 05:25:39;;;;;;;8.25;4.25;;;;;;;-3.36;100.00;102828.47;5123339;27;20050;-47
2023/03/01 05:28:12;;;;;;;9.38;4.38;;;;;;;-3.40;100.00;102832.66;5128986;27;20035;-46
2023/03/01 05:30:41;;;;;;;8.75;4.55;;;;;;;-3.40;100.00;102829.22;5129530;27;20071;-47
2023/03/01 05:33:13;;;;;;;8.93;5.38;;;;;;;-3.42;100.00;102823.19;5127051;27;20498;-48
2023/03/01 05:35:43;;;;;;;10.80;5.35;;;;;;;-3.41;100.00;102828.38;5119440;27;20067;-47
2023/03/01 05:38:13;;;;;;;10.00;4.72;;;;;;;-3.42;100.00;102823.19;5127711;27;20070;-47
2023/03/01 05:40:42;;;;;;;8.48;4.97;;;;;;;-3.45;100.00;102818.84;5131530;27;20478;-49
2023/03/01 05:43:12;;;;;;;9.75;4.97;;;;;;;-3.34;100.00;102826.81;5128802;27;20039;-47
2023/03/01 05:45:41;;;;;;;10.02;4.82;;;;;;;-3.34;100.00;102821.66;5127261;27;20062;-47
2023/03/01 05:48:10;;;;;;;9.85;4.57;;;;;;;-3.36;100.00;102823.31;5128265;27;20051;-49
2023/03/01 05:50:41;;;;;;;9.68;5.22;;;;;;;-3.40;100.00;102822.38;5123546;27;20091;-49
2023/03/01 05:53:14;;;;;;;9.15;4.72;;;;;;;-3.44;100.00;102822.25;5125137;27;20762;-48
2023/03/01 05:55:44;;;;;;;12.73;4.97;;;;;;;-3.49;100.00;102821.28;5123833;27;20035;-47
2023/03/01 05:58:14;;;;;;;12.10;5.43;;;;;;;-3.44;100.00;102811.97;5119760;27;20046;-51
2023/03/01 06:00:43;;;;;;;8.00;4.55;;;;;;;-3.47;100.00;102817.03;5121097;27;20040;-50
2023/03/01 06:03:13;;;;;;;7.55;4.35;;;;;;;-3.49;100.00;102821.28;5136558;27;20043;-51
2023/03/01 06:05:41;;;;;;;8.65;4.82;;;;;;;-3.41;100.00;102818.06;5136349;27;20126;-49
2023/03/01 06:08:14;;;;;;;10.50;5.47;;;;;;;-3.46;100.00;102821.38;5130962;27;20103;-48
2023/03/01 06:10:42;;;;;;;9.43;4.65;;;;;;;-3.47;100.00;102827.34;5110841;28;20082;-49
2023/03/01 06:13:10;;;;;;;8.55;4.63;;;;;;;-3.49;100.00;102824.72;5112960;28;20071;-52
2023/03/01 06:15:38;;;;;;;8.70;4.60;;;;;;;-3.51;100.00;102828.09;5129315;27;20051;-49
2023/03/01 06:18:07;;;;;;;8.90;4.70;;;;;;;-3.53;100.00;102833.22;5133620;27;20047;-49
2023/03/01 06:20:35;;;;;;;11.38;4.82;;;;;;;-3.50;100.00;102825.56;5130865;27;20138;-47
2023/03/01 06:23:03;;;;;;;10.52;5.22;;;;;;;-3.50;100.00;102830.69;5132922;27;20054;-48
2023/03/01 06:25:33;;;;;;;9.18;4.93;;;;;;;-3.38;100.00;102827.56;5131485;27;20387;-48
2023/03/01 06:28:02;;;;;;;10.85;5.78;;;;;;;-3.38;100.00;102827.56;5132988;27;20374;-47
2023/03/01 06:30:32;;;;;;;11.73;5.40;;;;;;;-3.51;100.00;102823.81;5132237;27;20525;-50
2023/03/01 06:33:02;;;;;;;9.80;5.20;;;;;;;-3.53;100.00;102824.59;5120939;27;20050;-49
2023/03/01 06:35:31;;;;;;;10.63;4.57;;;;;;;-3.55;100.00;102826.28;5120445;27;20043;-47
2023/03/01 06:38:01;;;;;;;11.48;5.35;;;;;;;-3.51;100.00;102821.25;5119424;27;20039;-49
2023/03/01 06:40:30;;;;;;;10.45;5.22;;;;;;;-3.46;100.00;102821.38;5116775;27;20433;-47
2023/03/01 06:43:02;;;;;;;10.18;5.20;;;;;;;-3.47;100.00;102814.47;5127426;27;20070;-48
2023/03/01 06:45:30;;;;;;;11.00;5.20;;;;;;;-3.55;100.00;102822.00;5119142;27;20416;-47
2023/03/01 06:48:07;;;;;;;9.68;4.95;;;;;;;-3.52;100.00;102822.06;5125929;27;20054;-48
2023/03/01 06:50:35;;;;;;;8.38;4.47;;;;;;;-3.60;100.00;102826.16;5121264;27;20047;-49
2023/03/01 06:53:04;;;;;;;13.73;4.60;;;;;;;-3.62;100.00;102833.81;5122160;27;20504;-49
2023/03/01 06:55:33;;;;;;;10.93;5.00;;;;;;;-3.57;100.00;102826.25;5122913;27;20050;-49
2023/03/01 06:58:04;;;;;;;10.40;5.28;;;;;;;-3.61;100.00;102830.44;5121593;27;20047;-48
2023/03/01 07:00:33;;;;;;;10.98;5.35;;;;;;;-3.66;100.00;102833.72;5120052;27;20104;-47
2023/03/01 07:03:03;;;;;;;13.63;5.75;;;;;;;-3.67;100.00;102837.13;5131779;27;20043;-47
2023/03/01 07:05:34;;;;;;;10.90;6.20;;;;;;;-3.69;100.00;102831.94;5123566;27;20455;-49
2023/03/01 07:08:02;;;;;;;13.02;5.75;;;;;;;-3.68;100.00;102832.78;5119195;27;20359;-48
2023/03/01 07:10:33;;;;;;;12.80;5.72;;;;;;;-3.61;100.00;102829.56;5124125;27;20039;-51
2023/03/01 07:13:01;;;;;;;13.05;6.20;;;;;;;-3.60;100.00;102829.59;5128082;27;20041;-48
2023/03/01 07:15:30;;;;;;;14.48;6.15;;;;;;;-3.55;100.00;102829.72;5121610;27;20417;-48
2023/03/01 07:17:58;;;;;;;13.27;6.30;;;;;;;-3.52;100.00;102826.34;5123180;27;20069;-53
2023/03/01 07:20:26;;;;;;;16.23;5.97;;;;;;;-3.46;100.00;102831.66;5124073;27;20062;-49
2023/03/01 07:22:56;;;;;;;10.10;6.03;;;;;;;-3.34;100.00;102825.94;5126462;27;20076;-51
2023/03/01 07:25:24;;;;;;;11.82;5.82;;;;;;;-3.26;100.00;102822.72;5122695;27;20039;-45
2023/03/01 07:27:52;;;;;;;10.60;6.05;;;;;;;-3.14;100.00;102828.97;5132134;27;20043;-47
2023/03/01 07:30:21;;;;;;;11.60;6.30;;;;;;;-3.06;100.00;102825.75;5131308;27;20180;-48
2023/03/01 07:32:51;;;;;;;14.98;5.68;;;;;;;-2.94;100.00;102822.59;5122531;27;20074;-48
2023/03/01 07:35:22;;;;;;;11.52;6.28;;;;;;;-2.70;100.00;102820.53;5129080;27;20055;-51
2023/03/01 07:37:51;;;;;;;13.50;6.55;;;;;;;-2.15;100.00;102819.09;5130505;27;20542;-48
2023/03/01 07:40:19;;;;;;;13.13;6.60;;;;;;;-2.09;100.00;102823.47;5131074;27;20087;-47
2023/03/01 07:42:47;;;;;;;11.85;6.15;;;;;;;-1.95;100.00;102824.63;5131304;27;20573;-48
2023/03/01 07:45:15;;;;;;;13.25;6.60;;;;;;;-1.77;100.00;102824.09;5132000;27;20092;-50
2023/03/01 07:47:43;;;;;;;12.93;6.72;;;;;;;-1.41;100.00;102827.28;5125856;27;20081;-48
2023/03/01 07:50:13;;;;;;;10.32;6.38;;;;;;;-1.13;100.00;102838.03;5114805;27;20047;-50
2023/03/01 07:52:41;;;;;;;11.73;6.57;;;;;;;-0.12;100.00;102833.38;5113862;27;20035;-48
2023/03/01 07:55:09;;;;;;;12.27;6.75;;;;;;;0.47;100.00;102819.28;5118824;27;20055;-50
2023/03/01 07:57:37;;;;;;;12.35;7.10;;;;;;;0.37;100.00;102820.06;5115431;27;20077;-50
2023/03/01 08:00:07;;;;;;;11.18;5.88;;;;;;;0.62;100.00;102822.88;5114477;27;20043;-49
2023/03/01 08:02:35;;;;;;;13.05;6.28;;;;;;;0.57;100.00;102820.22;5121531;27;20100;-48
2023/03/01 08:05:04;;;;;;;11.52;6.05;;;;;;;0.47;100.00;102824.44;5113960;27;20083;-48
2023/03/01 08:07:34;;;;;;;11.45;5.47;;;;;;;1.26;100.00;102827.59;5116461;27;20043;-48
2023/03/01 08:10:02;;;;;;;13.30;6.38;;;;;;;0.94;100.00;102835.19;5111686;27;20054;-49
2023/03/01 08:12:30;;;;;;;9.73;5.50;;;;;;;1.01;100.00;102831.78;5118558;27;20077;-50
2023/03/01 08:14:58;;;;;;;13.52;5.82;;;;;;;1.37;100.00;102835.44;5129582;27;20170;-50
2023/03/01 08:17:26;;;;;;;10.52;5.38;;;;;;;1.34;100.00;102838.03;5132144;27;20498;-51
2023/03/01 08:19:54;;;;;;;10.55;5.70;;;;;;;1.68;100.00;102828.66;5133543;27;20047;-50
2023/03/01 08:22:22;;;;;;;10.88;6.03;;;;;;;2.01;100.00;102828.78;5130700;27;20382;-49
2023/03/01 08:24:52;;;;;;;11.05;5.53;;;;;;;2.03;100.00;102834.81;5123729;27;20501;-52
2023/03/01 08:27:20;;;;;;;12.27;6.15;;;;;;;2.45;100.00;102825.34;5110190;28;20067;-51
2023/03/01 08:29:48;;;;;;;11.23;6.07;;;;;;;2.72;100.00;102822.78;5112179;28;20110;-53
2023/03/01 08:32:16;;;;;;;11.30;6.25;;;;;;;2.72;100.00;102822.78;5130584;27;20125;-50
2023/03/01 08:34:47;;;;;;;10.52;5.95;;;;;;;2.99;99.83;102820.13;5128836;27;20055;-50
2023/03/01 08:37:15;;;;;;;14.52;5.95;;;;;;;3.58;97.76;102819.97;5113346;27;20050;-52
2023/03/01 08:39:43;;;;;;;11.05;5.63;;;;;;;3.46;95.37;102817.41;5118754;27;20104;-53
2023/03/01 08:42:15;;;;;;;11.95;5.82;;;;;;;3.68;91.99;102818.16;5119796;27;20059;-49
2023/03/01 08:44:44;;;;;;;10.70;5.55;;;;;;;3.68;93.39;102808.66;5112393;28;20561;-47
2023/03/01 08:47:14;;;;;;;10.30;5.68;;;;;;;3.81;90.09;102811.19;5113045;28;20048;-48
2023/03/01 08:49:42;;;;;;;10.18;5.85;;;;;;;3.92;92.69;102803.31;5120348;28;20108;-50
2023/03/01 08:52:10;;;;;;;10.50;5.68;;;;;;;3.74;89.36;102794.72;5113864;28;20036;-51
2023/03/01 08:54:39;;;;;;;9.80;5.07;;;;;;;4.06;87.61;102799.75;5112995;28;20043;-51
2023/03/01 08:57:08;;;;;;;10.73;5.57;;;;;;;4.11;87.75;102798.88;5114719;28;20051;-49
2023/03/01 08:59:38;;;;;;;10.82;5.00;;;;;;;4.06;84.33;102796.25;5116370;27;20055;-50
2023/03/01 09:02:11;;;;;;;10.23;5.55;;;;;;;3.81;85.38;102800.78;5122193;27;20032;-49
2023/03/01 09:04:39;;;;;;;8.52;4.78;;;;;;;3.96;86.30;102792.00;5116571;27;20051;-50
2023/03/01 09:07:08;;;;;;;9.35;5.18;;;;;;;4.07;85.89;102784.97;5118790;27;20047;-48
2023/03/01 09:09:36;;;;;;;9.27;4.82;;;;;;;4.16;84.07;102779.72;5119591;27;20048;-50
2023/03/01 09:12:05;;;;;;;10.02;5.22;;;;;;;4.15;82.91;102777.97;5121943;27;20062;-49
2023/03/01 09:14:33;;;;;;;12.50;5.00;;;;;;;4.11;82.93;102786.69;5113797;27;20050;-52
2023/03/01 09:17:03;;;;;;;10.00;4.78;;;;;;;4.00;82.98;102776.34;5118731;27;20136;-51
2023/03/01 09:19:31;;;;;;;8.50;4.95;;;;;;;4.25;81.97;102785.72;5120554;27;20126;-52
2023/03/01 09:21:59;;;;;;;9.80;4.90;;;;;;;4.33;82.04;102790.00;5119305;27;20042;-49
2023/03/01 09:24:27;;;;;;;9.80;4.93;;;;;;;4.25;81.51;102788.34;5117714;27;20039;-48
2023/03/01 09:26:56;;;;;;;10.88;5.28;;;;;;;4.34;82.53;102786.53;5118004;27;20089;-51
2023/03/01 09:29:25;;;;;;;9.57;4.93;;;;;;;4.41;80.94;102779.53;5114484;27;20044;-49
2023/03/01 09:31:55;;;;;;;10.20;5.20;;;;;;;4.55;80.61;102775.06;5132334;27;20059;-48
2023/03/01 09:34:25;;;;;;;10.57;5.07;;;;;;;4.80;81.03;102776.56;5132274;27;20051;-51
2023/03/01 09:36:53;;;;;;;9.18;5.20;;;;;;;4.76;80.33;102778.34;5132575;27;20043;-49
2023/03/01 09:39:23;;;;;;;10.30;5.28;;;;;;;4.83;78.32;102772.19;5135330;27;20562;-49
2023/03/01 09:41:59;;;;;;;8.40;4.78;;;;;;;4.96;80.18;102767.69;5126187;27;20413;-51
2023/03/01 09:44:34;;;;;;;10.85;4.75;;;;;;;5.02;77.73;102766.78;5112750;28;20043;-53
2023/03/01 09:47:03;;;;;;;9.45;4.95;;;;;;;5.02;77.66;102758.97;5120679;27;20092;-52
2023/03/01 09:49:36;;;;;;;9.93;5.07;;;;;;;5.11;78.54;102763.19;5130652;27;20500;-53
2023/03/01 09:52:14;;;;;;;11.35;5.05;;;;;;;5.22;77.47;102756.97;5121023;27;20036;-50
2023/03/01 09:54:42;;;;;;;7.93;5.10;;;;;;;5.23;75.88;102750.00;5120373;27;20054;-53
2023/03/01 09:57:20;;;;;;;9.10;5.28;;;;;;;5.37;74.74;102744.59;5127200;27;20074;-54
2023/03/01 10:00:08;;;;;;;10.02;5.72;;;;;;;5.45;73.98;102740.16;5131692;27;20039;-50
2023/03/01 10:02:42;;;;;;;10.18;5.60;;;;;;;5.55;73.18;102735.69;5128140;27;20076;-50
2023/03/01 10:05:26;;;;;;;11.15;5.97;;;;;;;5.53;71.28;102733.06;5117117;27;20048;-50
2023/03/01 10:08:03;;;;;;;10.40;6.05;;;;;;;5.68;71.32;102731.13;5113137;27;20077;-48
2023/03/01 10:10:36;;;;;;;11.23;5.97;;;;;;;5.79;70.16;102731.84;5131626;27;20482;-49
2023/03/01 10:13:14;;;;;;;12.38;5.88;;;;;;;6.06;68.61;102741.03;5132625;27;20046;-48
2023/03/01 10:15:48;;;;;;;13.38;5.65;;;;;;;6.17;65.28;102743.47;5121066;27;20056;-50
2023/03/01 10:18:21;;;;;;;10.73;5.63;;;;;;;6.31;65.51;102750.22;5119287;27;20047;-48
2023/03/01 10:20:54;;;;;;;10.13;5.38;;;;;;;6.28;64.20;102732.00;5115609;27;20054;-50
2023/03/01 10:23:24;;;;;;;9.80;5.70;;;;;;;6.62;64.95;102741.84;5122806;27;20054;-49
2023/03/01 10:26:13;;;;;;;8.68;5.25;;;;;;;6.73;63.71;102718.97;5112380;27;20367;-49
2023/03/01 10:28:51;;;;;;;9.73;5.38;;;;;;;7.20;62.60;102704.09;5130643;27;20046;-50
2023/03/01 10:31:27;;;;;;;9.70;5.50;;;;;;;7.31;59.81;102710.81;5132530;27;20104;-48
2023/03/01 10:33:58;;;;;;;10.02;5.22;;;;;;;7.59;60.55;102704.09;5131425;27;20047;-50
2023/03/01 10:36:28;;;;;;;9.38;5.38;;;;;;;7.60;57.27;102695.31;5130614;27;20050;-50
2023/03/01 10:38:58;;;;;;;8.95;4.90;;;;;;;7.69;59.22;102696.88;5134490;27;20039;-49
2023/03/01 10:41:28;;;;;;;10.13;5.40;;;;;;;7.98;57.85;102695.31;5135648;27;20035;-52
2023/03/01 10:43:59;;;;;;;8.73;5.35;;;;;;;8.22;57.90;102692.97;5131184;27;20401;-49
2023/03/01 10:46:30;;;;;;;8.07;4.93;;;;;;;8.14;57.57;102690.56;5115363;27;20058;-48
2023/03/01 10:49:17;;;;;;;9.77;5.13;;;;;;;8.19;53.96;102695.69;5122749;27;20047;-50
2023/03/01 10:51:49;;;;;;;9.63;5.20;;;;;;;8.16;53.64;102696.63;5130588;27;20050;-51
2023/03/01 10:54:20;;;;;;;10.65;4.95;;;;;;;8.32;54.20;102686.59;5132629;27;20126;-51
2023/03/01 10:56:52;;;;;;;10.70;5.35;;;;;;;8.29;53.74;102686.69;5130944;27;20055;-53
2023/03/01 10:59:26;;;;;;;9.95;5.40;;;;;;;8.45;53.62;102674.94;5132222;27;20035;-51
2023/03/01 11:02:22;;;;;;;9.60;5.18;;;;;;;8.53;53.08;102677.31;5132300;27;20045;-50
2023/03/01 11:04:59;;;;;;;10.50;5.18;;;;;;;8.75;53.44;102679.34;5113481;27;20522;-50
2023/03/01 11:07:29;;;;;;;9.43;5.22;;;;;;;8.82;52.48;102682.66;5130558;27;20122;-51
2023/03/01 11:09:57;;;;;;;10.85;5.60;;;;;;;9.26;52.60;102672.63;5131802;27;20424;-49
2023/03/01 11:12:28;;;;;;;9.68;4.55;;;;;;;9.54;51.71;102679.66;5133932;27;20070;-51
2023/03/01 11:14:57;;;;;;;9.18;4.90;;;;;;;9.93;49.33;102685.38;5131918;27;20474;-53
2023/03/01 11:17:28;;;;;;;7.75;4.43;;;;;;;9.79;50.03;102677.09;5132215;27;20481;-51
2023/03/01 11:20:18;;;;;;;10.13;4.45;;;;;;;10.05;48.31;102680.59;5132462;27;20130;-53
2023/03/01 11:22:51;;;;;;;8.45;4.35;;;;;;;9.52;48.06;102677.06;5134620;27;20043;-53
2023/03/01 11:25:23;;;;;;;9.32;4.95;;;;;;;10.07;47.06;102684.06;5134650;27;20039;-49
2023/03/01 11:27:54;;;;;;;8.90;4.70;;;;;;;10.37;45.20;102678.69;5130951;27;20072;-51
2023/03/01 11:30:26;;;;;;;8.52;5.13;;;;;;;10.41;45.77;102675.03;5131571;27;20047;-48
2023/03/01 11:33:09;;;;;;;9.63;4.68;;;;;;;10.19;44.89;102678.38;5131372;27;20043;-49